createdAt,value
2023-03-06T00:03:52.287Z,2.65
2023-03-06T00:09:13.039Z,2.69
2023-03-06T00:14:33.755Z,2.55
2023-03-06T00:19:54.563Z,2.42
2023-03-06T00:25:17.755Z,2.40
2023-03-06T00:30:38.262Z,2.39
2023-03-06T00:37:14.695Z,2.45
2023-03-06T00:42:35.097Z,2.36
2023-03-06T00:47:56.299Z,2.25
2023-03-06T00:53:18.219Z,2.17
2023-03-06T00:58:39.204Z,2.07
2023-03-06T01:03:59.461Z,1.98
2023-03-06T01:09:20.507Z,1.87
2023-03-06T01:14:41.024Z,1.94
2023-03-06T01:20:04.384Z,1.92
2023-03-06T01:25:25.352Z,1.85
2023-03-06T01:30:46.029Z,1.74
2023-03-06T01:36:08.758Z,1.69
2023-03-06T01:41:29.469Z,1.67
2023-03-06T01:46:50.392Z,1.63
2023-03-06T01:52:18.248Z,1.49
2023-03-06T01:57:44.086Z,1.48
2023-03-06T02:03:15.598Z,1.58
2023-03-06T02:08:36.554Z,1.66
2023-03-06T02:13:57.232Z,1.71
2023-03-06T02:19:52.445Z,1.72
2023-03-06T02:25:31.310Z,1.79
2023-03-06T02:30:54.305Z,1.83
2023-03-06T02:36:16.574Z,1.86
2023-03-06T02:41:41.196Z,1.97
2023-03-06T02:47:02.169Z,2.04
2023-03-06T02:52:22.710Z,2.12
2023-03-06T02:57:43.368Z,2.11
2023-03-06T03:03:04.891Z,2.17
2023-03-06T03:08:26.239Z,2.19
2023-03-06T03:13:51.120Z,2.22
2023-03-06T03:19:16.464Z,2.23
2023-03-06T03:24:37.146Z,2.08
2023-03-06T03:29:58.883Z,2.01
2023-03-06T03:35:21.042Z,1.92
2023-03-06T03:40:41.404Z,1.86
2023-03-06T03:46:02.598Z,1.84
2023-03-06T03:51:23.224Z,1.83
2023-03-06T03:56:47.554Z,1.82
2023-03-06T04:02:21.682Z,1.77
2023-03-06T04:07:50.686Z,1.74
2023-03-06T04:13:12.365Z,1.62
2023-03-06T04:18:36.653Z,1.65
2023-03-06T04:23:59.306Z,1.52
2023-03-06T04:29:19.851Z,1.54
2023-03-06T04:34:40.497Z,1.50
2023-03-06T04:40:01.258Z,1.40
2023-03-06T04:45:22.159Z,1.35
2023-03-06T04:50:42.937Z,1.34
2023-03-06T04:56:03.924Z,1.37
2023-03-06T05:01:24.671Z,1.44
2023-03-06T05:06:45.248Z,1.61
2023-03-06T05:12:06.190Z,1.68
2023-03-06T05:17:26.690Z,1.75
2023-03-06T05:22:47.283Z,1.83
2023-03-06T05:28:08.851Z,1.87
2023-03-06T05:33:32.424Z,1.86
2023-03-06T05:38:52.995Z,2.06
2023-03-06T05:44:13.692Z,2.26
2023-03-06T05:49:36.115Z,2.35
2023-03-06T05:54:56.866Z,2.44
2023-03-06T06:00:18.676Z,2.52
2023-03-06T06:05:39.808Z,2.46
2023-03-06T06:11:00.654Z,2.48
2023-03-06T06:16:21.248Z,2.60
2023-03-06T06:21:41.642Z,2.67
2023-03-06T06:27:03.959Z,2.68
2023-03-06T06:32:24.636Z,2.68
2023-03-06T06:37:44.939Z,2.66
2023-03-06T06:43:05.753Z,2.42
2023-03-06T06:48:26.583Z,2.44
2023-03-06T06:53:47.447Z,2.57
2023-03-06T06:59:16.657Z,2.47
2023-03-06T07:04:44.305Z,2.42
2023-03-06T07:10:15.231Z,2.47
2023-03-06T07:15:35.938Z,2.63
2023-03-06T07:20:57.237Z,3.11
2023-03-06T07:26:18.591Z,3.49
2023-03-06T07:31:39.456Z,3.46
2023-03-06T07:37:00.130Z,3.54
2023-03-06T07:42:20.905Z,4.01
2023-03-06T07:47:53.921Z,4.20
2023-03-06T07:53:14.996Z,4.11
2023-03-06T07:59:01.545Z,3.99
2023-03-06T08:04:22.025Z,3.94
2023-03-06T08:09:42.431Z,4.13
2023-03-06T08:15:11.492Z,4.40
2023-03-06T08:20:32.429Z,4.56
2023-03-06T08:26:07.504Z,4.72
2023-03-06T08:31:40.613Z,4.74
2023-03-06T08:37:01.180Z,4.67
2023-03-06T08:42:21.844Z,4.80
2023-03-06T08:47:42.262Z,4.83
2023-03-06T08:53:02.658Z,4.85
2023-03-06T08:58:23.241Z,4.88
2023-03-06T09:03:44.620Z,4.94
2023-03-06T09:09:05.958Z,5.23
2023-03-06T09:14:26.349Z,5.61
2023-03-06T09:19:47.048Z,6.00
2023-03-06T09:25:08.217Z,6.04
2023-03-06T09:30:28.907Z,6.29
2023-03-06T09:35:54.929Z,6.69
2023-03-06T09:41:42.578Z,6.82
2023-03-06T09:47:25.161Z,6.95
2023-03-06T09:53:08.273Z,6.71
2023-03-06T09:58:30.931Z,6.77
2023-03-06T10:04:04.142Z,6.91
2023-03-06T10:09:29.989Z,7.05
2023-03-06T10:15:24.025Z,7.19
2023-03-06T10:20:55.597Z,7.29
2023-03-06T10:26:22.935Z,7.68
2023-03-06T10:31:45.334Z,8.08
2023-03-06T10:37:18.633Z,8.26
2023-03-06T10:42:39.389Z,9.10
2023-03-06T10:48:11.978Z,9.38
2023-03-06T10:53:32.861Z,13.76
2023-03-06T10:59:09.089Z,22.16
2023-03-06T11:04:33.013Z,23.63
2023-03-06T11:10:21.984Z,25.94
2023-03-06T11:15:57.054Z,26.02
2023-03-06T11:21:25.465Z,25.78
2023-03-06T11:26:56.616Z,23.16
2023-03-06T11:32:24.630Z,22.78
2023-03-06T11:37:58.330Z,25.97
2023-03-06T11:43:35.296Z,25.39
2023-03-06T11:49:12.071Z,23.85
2023-03-06T11:54:33.655Z,24.69
2023-03-06T12:00:08.323Z,25.30
2023-03-06T12:05:52.501Z,27.83
2023-03-06T12:11:20.312Z,28.57
2023-03-06T12:17:06.823Z,30.33
2023-03-06T12:22:57.987Z,32.25
2023-03-06T12:28:46.857Z,33.11
2023-03-06T12:34:22.474Z,36.04
2023-03-06T12:39:48.721Z,38.11
2023-03-06T12:45:25.060Z,35.78
2023-03-06T12:50:46.215Z,33.64
2023-03-06T12:56:07.296Z,32.73
2023-03-06T13:01:34.073Z,25.92
2023-03-06T13:07:16.545Z,23.22
2023-03-06T13:13:01.140Z,28.88
2023-03-06T13:18:21.881Z,29.82
2023-03-06T13:23:52.146Z,27.53
2023-03-06T13:29:37.971Z,25.85
2023-03-06T13:34:58.828Z,25.12
2023-03-06T13:40:31.825Z,21.39
2023-03-06T13:45:52.796Z,20.17
2023-03-06T13:51:23.288Z,21.53
2023-03-06T13:57:13.966Z,24.16
2023-03-06T14:03:21.358Z,25.39
2023-03-06T14:08:42.542Z,23.30
2023-03-06T14:14:03.681Z,17.93
2023-03-06T14:19:24.721Z,14.40
2023-03-06T14:24:54.473Z,12.92
2023-03-06T14:30:18.648Z,11.35
2023-03-06T14:35:39.254Z,10.31
2023-03-06T14:40:59.934Z,10.40
2023-03-06T14:46:22.416Z,10.29
2023-03-06T14:51:46.615Z,10.20
2023-03-06T14:57:14.522Z,10.13
2023-03-06T15:02:36.141Z,9.75
2023-03-06T15:08:04.099Z,8.93
2023-03-06T15:13:28.137Z,8.84
2023-03-06T15:19:02.438Z,8.02
2023-03-06T15:24:35.850Z,7.54
2023-03-06T15:30:20.741Z,7.37
2023-03-06T15:36:02.058Z,6.87
2023-03-06T15:41:33.186Z,6.54
2023-03-06T15:47:06.601Z,6.37
2023-03-06T15:52:28.966Z,6.11
2023-03-06T15:58:02.078Z,5.74
2023-03-06T16:03:22.808Z,5.77
2023-03-06T16:08:43.833Z,5.54
2023-03-06T16:14:04.664Z,5.50
2023-03-06T16:19:27.618Z,5.32
2023-03-06T16:24:48.350Z,5.21
2023-03-06T16:30:18.030Z,4.96
2023-03-06T16:35:38.809Z,4.95
2023-03-06T16:40:59.024Z,4.59
2023-03-06T16:46:22.280Z,4.48
2023-03-06T16:51:42.669Z,4.41
2023-03-06T16:57:03.182Z,4.20
2023-03-06T17:02:23.988Z,4.07
2023-03-06T17:07:44.381Z,4.14
2023-03-06T17:13:07.274Z,4.01
2023-03-06T17:18:28.933Z,4.01
2023-03-06T17:23:50.796Z,3.94
2023-03-06T17:29:12.027Z,3.88
2023-03-06T17:34:32.315Z,3.93
2023-03-06T17:39:52.964Z,3.95
2023-03-06T17:45:13.935Z,4.08
2023-03-06T17:50:34.354Z,4.04
2023-03-06T17:55:55.698Z,4.13
2023-03-06T18:01:19.658Z,4.15
2023-03-06T18:06:40.011Z,4.07
2023-03-06T18:12:00.682Z,4.08
2023-03-06T18:17:21.515Z,4.14
2023-03-06T18:22:42.210Z,4.20
2023-03-06T18:28:02.914Z,4.04
2023-03-06T18:33:23.790Z,4.22
2023-03-06T18:38:45.629Z,4.26
2023-03-06T18:44:06.258Z,4.29
2023-03-06T18:49:27.294Z,4.16
2023-03-06T18:54:49.887Z,4.05
2023-03-06T19:00:10.998Z,3.98
2023-03-06T19:05:31.538Z,3.98
2023-03-06T19:10:52.262Z,4.07
2023-03-06T19:16:22.596Z,3.93
2023-03-06T19:21:43.148Z,3.79
2023-03-06T19:27:03.917Z,3.64
2023-03-06T19:32:25.008Z,3.67
2023-03-06T19:37:45.382Z,3.86
2023-03-06T19:43:05.848Z,3.75
2023-03-06T19:48:26.394Z,3.52
2023-03-06T19:53:46.852Z,3.48
2023-03-06T19:59:07.499Z,3.31
2023-03-06T20:04:32.655Z,3.19
2023-03-06T20:09:56.134Z,2.99
2023-03-06T20:15:18.940Z,2.88
2023-03-06T20:20:39.960Z,2.76
2023-03-06T20:26:06.029Z,2.63
2023-03-06T20:31:34.455Z,2.60
2023-03-06T20:36:57.776Z,2.61
2023-03-06T20:42:18.486Z,2.40
2023-03-06T20:47:39.205Z,2.40
2023-03-06T20:52:59.770Z,2.25
2023-03-06T20:58:26.586Z,2.18
2023-03-06T21:03:47.510Z,2.11
2023-03-06T21:09:26.886Z,2.04
2023-03-06T21:15:27.851Z,2.00
2023-03-06T21:21:28.946Z,2.04
2023-03-06T21:26:54.304Z,2.06
2023-03-06T21:32:15.072Z,2.04
2023-03-06T21:37:36.202Z,2.10
2023-03-06T21:43:07.557Z,2.12
2023-03-06T21:48:42.573Z,2.22
2023-03-06T21:54:05.448Z,2.12
2023-03-06T21:59:32.313Z,2.31
2023-03-06T22:04:59.239Z,2.46
2023-03-06T22:10:20.124Z,2.41
2023-03-06T22:16:00.646Z,2.34
2023-03-06T22:21:24.841Z,2.27
2023-03-06T22:26:51.437Z,2.22
2023-03-06T22:32:20.705Z,2.25
2023-03-06T22:37:50.537Z,2.39
2023-03-06T22:43:17.530Z,2.57
2023-03-06T22:48:45.247Z,2.71
2023-03-06T22:54:11.238Z,2.82
2023-03-06T22:59:38.077Z,2.99
2023-03-06T23:05:05.891Z,3.05
2023-03-06T23:10:29.429Z,2.89
2023-03-06T23:16:09.643Z,3.04
2023-03-06T23:21:49.643Z,3.10
2023-03-06T23:27:29.422Z,2.97
2023-03-06T23:32:49.819Z,2.91
2023-03-06T23:38:11.427Z,3.03
2023-03-06T23:43:32.352Z,3.32
2023-03-06T23:48:53.121Z,3.51
2023-03-06T23:54:13.998Z,3.69
2023-03-06T23:59:34.876Z,3.75
